No particular awareness of the weather is required.    There are no Weather-warnings


Meteo18 Weather Cam more information Meteo18 Weather Cam


Thunder radar more information blitzortung!


Rain radar more information rain snow radar


Visit our other weather sites:

Template documentation
and downloads

And another site



Weather Underground History page Text

Daily Summary for April 9, 2017 Units:  English    Metric   Both
« Previous Day
Next Day »
Daily Weekly Monthly Yearly Custom
  High: Low: Average:
Temperature: TemperatureC °F 8.1 °F 16.7 °F
Dew Point: DewpointC °F 5.7 °F 8.6 °F
Humidity: Humidity % 30 % 62 %
Wind Speed: WindSpeedKMH mph 0.0 mph 2.1 mph
Wind Gust: WindSpeedGustKMH mph - -
Wind:- - SSW
Pressure: PressurehPa in 1021.6 in -
Precipitation: 0.0 in    
Historical Graphs
 
 
Tabular Data for April 9, 2017
Time Temperature Dew Point Pressure Wind Wind Speed Wind Gust Humidity Rainfall Rate (Hourly)
TemperatureC °F DewpointC °F PressurehPa in Calm     Humidity % HourlyPrecipMM in
00:02 13.3 °F 8.4 °F 1022.6 in Calm   3.2 mph 72 % 0.0 in
00:12 12.6 °F 8.1 °F 1022.6 in WNW 3.2 mph 3.2 mph 74 % 0.0 in
00:17 12.7 °F 8.4 °F 1022.6 in WNW 1.6 mph 4.8 mph 75 % 0.0 in
00:22 13.1 °F 8.4 °F 1022.6 in NW 1.6 mph 4.8 mph 73 % 0.0 in
00:27 13.3 °F 8.4 °F 1022.6 in NW 1.6 mph 4.8 mph 72 % 0.0 in
00:32 13.2 °F 8.3 °F 1022.6 in Calm   4.8 mph 72 % 0.0 in
00:37 13.2 °F 8.3 °F 1022.6 in NW 1.6 mph 4.8 mph 72 % 0.0 in
00:42 13.0 °F 8.1 °F 1022.6 in NW 3.2 mph 4.8 mph 72 % 0.0 in
00:47 12.8 °F 7.9 °F 1022.6 in WNW 3.2 mph 4.8 mph 72 % 0.0 in
00:52 12.2 °F 7.9 °F 1022.6 in WNW 3.2 mph 4.8 mph 75 % 0.0 in
00:57 12.3 °F 8.2 °F 1022.6 in NW 3.2 mph 4.8 mph 76 % 0.0 in
01:02 12.7 °F 8.2 °F 1022.6 in NW 1.6 mph 4.8 mph 74 % 0.0 in
01:07 12.6 °F 7.9 °F 1022.6 in NW 1.6 mph 4.8 mph 73 % 0.0 in
01:12 12.7 °F 8.0 °F 1022.6 in NNW 3.2 mph 4.8 mph 73 % 0.0 in
01:17 12.7 °F 8.0 °F 1022.6 in North 1.6 mph 4.8 mph 73 % 0.0 in
01:22 12.7 °F 8.0 °F 1022.6 in North 1.6 mph 4.8 mph 73 % 0.0 in
01:27 12.7 °F 8.0 °F 1022.6 in North 4.8 mph 4.8 mph 73 % 0.0 in
01:32 12.7 °F 8.0 °F 1022.6 in North 1.6 mph 4.8 mph 73 % 0.0 in
01:37 12.6 °F 8.1 °F 1022.6 in North 3.2 mph 4.8 mph 74 % 0.0 in
01:42 12.5 °F 8.0 °F 1022.6 in NW 1.6 mph 6.4 mph 74 % 0.0 in
01:47 12.2 °F 7.9 °F 1022.6 in NW 3.2 mph 6.4 mph 75 % 0.0 in
01:52 12.3 °F 8.0 °F 1022.6 in NNW 1.6 mph 4.8 mph 75 % 0.0 in
01:57 12.5 °F 8.2 °F 1022.6 in NNW 1.6 mph 4.8 mph 75 % 0.0 in
02:02 12.5 °F 8.0 °F 1022.6 in NNW 3.2 mph 4.8 mph 74 % 0.0 in
02:07 12.5 °F 8.2 °F 1022.6 in NW 1.6 mph 4.8 mph 75 % 0.0 in
02:12 12.4 °F 8.1 °F 1022.6 in Calm   4.8 mph 75 % 0.0 in
02:17 12.3 °F 8.0 °F 1022.6 in NNW 3.2 mph 4.8 mph 75 % 0.0 in
02:22 12.2 °F 7.9 °F 1022.6 in Calm   4.8 mph 75 % 0.0 in
02:27 12.1 °F 8.0 °F 1022.2 in North 1.6 mph 4.8 mph 76 % 0.0 in
02:32 12.1 °F 8.0 °F 1022.2 in North 1.6 mph 4.8 mph 76 % 0.0 in
02:37 11.9 °F 7.8 °F 1022.2 in NNE 3.2 mph 4.8 mph 76 % 0.0 in
02:42 11.8 °F 7.9 °F 1022.2 in Calm   4.8 mph 77 % 0.0 in
02:52 11.7 °F 7.8 °F 1022.2 in WNW 3.2 mph 4.8 mph 77 % 0.0 in
02:57 11.7 °F 8.0 °F 1022.2 in WNW 1.6 mph 3.2 mph 78 % 0.0 in
03:02 11.8 °F 7.9 °F 1022.2 in Calm   3.2 mph 77 % 0.0 in
03:07 11.8 °F 7.9 °F 1022.2 in NW 1.6 mph 3.2 mph 77 % 0.0 in
03:12 11.7 °F 7.8 °F 1022.2 in Calm   3.2 mph 77 % 0.0 in
03:17 11.7 °F 8.0 °F 1022.2 in Calm   1.6 mph 78 % 0.0 in
03:22 11.6 °F 7.9 °F 1022.2 in NW 1.6 mph 3.2 mph 78 % 0.0 in
03:27 11.6 °F 7.9 °F 1022.2 in NW 1.6 mph 3.2 mph 78 % 0.0 in
03:32 11.6 °F 7.9 °F 1022.2 in NW 1.6 mph 3.2 mph 78 % 0.0 in
03:37 11.7 °F 8.0 °F 1022.2 in NW 1.6 mph 3.2 mph 78 % 0.0 in
03:42 11.8 °F 7.9 °F 1022.2 in NW 1.6 mph 3.2 mph 77 % 0.0 in
03:47 11.8 °F 7.9 °F 1022.2 in Calm   3.2 mph 77 % 0.0 in
03:52 11.8 °F 7.9 °F 1022.2 in Calm   3.2 mph 77 % 0.0 in
03:57 11.9 °F 8.0 °F 1022.2 in North 1.6 mph 3.2 mph 77 % 0.0 in
04:02 11.9 °F 8.0 °F 1022.2 in Calm   3.2 mph 77 % 0.0 in
04:07 11.8 °F 7.9 °F 1022.2 in Calm   3.2 mph 77 % 0.0 in
04:12 11.6 °F 7.7 °F 1022.2 in Calm   1.6 mph 77 % 0.0 in
04:17 11.3 °F 7.6 °F 1022.2 in Calm   1.6 mph 78 % 0.0 in
04:22 11.1 °F 7.6 °F 1022.2 in Calm   1.6 mph 79 % 0.0 in
04:27 11.1 °F 7.8 °F 1021.9 in Calm   1.6 mph 80 % 0.0 in
04:32 11.1 °F 7.8 °F 1021.9 in Calm   1.6 mph 80 % 0.0 in
04:37 10.8 °F 7.5 °F 1021.9 in Calm     80 % 0.0 in
04:42 10.7 °F 7.6 °F 1022.2 in Calm   1.6 mph 81 % 0.0 in
04:47 10.6 °F 7.5 °F 1021.9 in Calm   1.6 mph 81 % 0.0 in
04:52 10.4 °F 7.3 °F 1022.2 in Calm   1.6 mph 81 % 0.0 in
04:57 10.2 °F 7.3 °F 1021.9 in Calm   1.6 mph 82 % 0.0 in
05:02 10.0 °F 7.2 °F 1021.9 in NNW 1.6 mph 1.6 mph 83 % 0.0 in
05:12 10.1 °F 7.2 °F 1021.9 in Calm   3.2 mph 82 % 0.0 in
05:17 9.8 °F 7.2 °F 1021.9 in North 1.6 mph 3.2 mph 84 % 0.0 in
05:22 10.1 °F 7.5 °F 1021.9 in NNW 1.6 mph 3.2 mph 84 % 0.0 in
05:27 10.3 °F 7.4 °F 1021.9 in Calm   3.2 mph 82 % 0.0 in
05:32 10.0 °F 7.1 °F 1021.9 in Calm   3.2 mph 82 % 0.0 in
05:37 9.7 °F 7.0 °F 1021.9 in Calm   3.2 mph 83 % 0.0 in
05:42 9.5 °F 7.1 °F 1021.9 in NNW 1.6 mph 1.6 mph 85 % 0.0 in
05:47 9.6 °F 7.2 °F 1021.9 in Calm   1.6 mph 85 % 0.0 in
05:52 9.6 °F 7.2 °F 1021.9 in Calm   1.6 mph 85 % 0.0 in
05:57 9.7 °F 7.1 °F 1021.9 in Calm   1.6 mph 84 % 0.0 in
06:02 9.8 °F 7.4 °F 1021.9 in North 1.6 mph 1.6 mph 85 % 0.0 in
06:07 9.8 °F 7.2 °F 1021.9 in NNW 1.6 mph 3.2 mph 84 % 0.0 in
06:12 9.6 °F 7.0 °F 1021.9 in NNW 1.6 mph 3.2 mph 84 % 0.0 in
06:17 9.7 °F 7.1 °F 1021.9 in NNW 1.6 mph 3.2 mph 84 % 0.0 in
06:22 9.7 °F 7.1 °F 1021.9 in NNW 1.6 mph 4.8 mph 84 % 0.0 in
06:32 9.5 °F 6.9 °F 1022.2 in NNW 1.6 mph 4.8 mph 84 % 0.0 in
06:37 9.3 °F 6.7 °F 1022.2 in North 3.2 mph 3.2 mph 84 % 0.0 in
06:42 9.4 °F 7.2 °F 1021.9 in North 3.2 mph 3.2 mph 86 % 0.0 in
06:47 9.4 °F 7.0 °F 1021.9 in North 1.6 mph 4.8 mph 85 % 0.0 in
06:52 9.3 °F 6.7 °F 1022.2 in Calm   4.8 mph 84 % 0.0 in
06:57 8.7 °F 6.1 °F 1022.2 in Calm   3.2 mph 84 % 0.0 in
07:02 8.1 °F 5.9 °F 1022.2 in Calm   3.2 mph 86 % 0.0 in
07:12 8.4 °F 6.9 °F 1022.2 in NNW 1.6 mph 1.6 mph 90 % 0.0 in
07:17 8.6 °F 6.9 °F 1022.2 in Calm   1.6 mph 89 % 0.0 in
07:22 8.7 °F 6.8 °F 1022.2 in NNW 1.6 mph 1.6 mph 88 % 0.0 in
07:27 8.6 °F 6.6 °F 1022.2 in North 1.6 mph 1.6 mph 87 % 0.0 in
07:32 8.7 °F 6.7 °F 1022.2 in NNW 1.6 mph 1.6 mph 87 % 0.0 in
07:37 8.8 °F 6.8 °F 1022.2 in NNW 1.6 mph 3.2 mph 87 % 0.0 in
07:42 9.0 °F 7.0 °F 1022.2 in North 1.6 mph 3.2 mph 87 % 0.0 in
07:47 9.2 °F 7.0 °F 1022.2 in Calm   3.2 mph 86 % 0.0 in
07:52 9.2 °F 6.8 °F 1022.2 in Calm   3.2 mph 85 % 0.0 in
07:57 9.2 °F 6.8 °F 1022.6 in Calm   3.2 mph 85 % 0.0 in
08:02 9.1 °F 6.7 °F 1022.6 in NW 1.6 mph 3.2 mph 85 % 0.0 in
08:07 9.1 °F 6.9 °F 1022.6 in Calm   3.2 mph 86 % 0.0 in
08:12 9.3 °F 7.2 °F 1022.6 in Calm   3.2 mph 87 % 0.0 in
08:17 9.6 °F 7.4 °F 1022.6 in Calm   3.2 mph 86 % 0.0 in
08:22 9.8 °F 7.6 °F 1022.6 in Calm   1.6 mph 86 % 0.0 in
08:32 10.7 °F 8.1 °F 1022.6 in Calm   1.6 mph 84 % 0.0 in
08:37 11.1 °F 8.5 °F 1022.6 in Calm   1.6 mph 84 % 0.0 in
08:42 11.4 °F 8.6 °F 1022.6 in Calm   1.6 mph 83 % 0.0 in
08:47 12.0 °F 9.2 °F 1022.9 in Calm   1.6 mph 83 % 0.0 in
08:52 12.4 °F 9.2 °F 1022.9 in Calm   1.6 mph 81 % 0.0 in
08:57 12.8 °F 9.4 °F 1022.9 in Calm     80 % 0.0 in
09:02 13.7 °F 10.1 °F 1022.9 in Calm     79 % 0.0 in
09:07 14.7 °F 9.3 °F 1022.9 in Calm     70 % 0.0 in
09:12 15.1 °F 8.6 °F 1022.9 in Calm   1.6 mph 65 % 0.0 in
09:17 15.0 °F 8.9 °F 1022.9 in Calm   1.6 mph 67 % 0.0 in
09:22 14.8 °F 8.7 °F 1022.9 in SE 1.6 mph 6.4 mph 67 % 0.0 in
09:27 14.8 °F 8.7 °F 1022.9 in South 3.2 mph 6.4 mph 67 % 0.0 in
09:32 14.8 °F 8.7 °F 1022.9 in SE 4.8 mph 6.4 mph 67 % 0.0 in
09:37 14.8 °F 8.7 °F 1023.2 in SE 3.2 mph 6.4 mph 67 % 0.0 in
09:42 14.6 °F 8.3 °F 1022.9 in SSE 6.4 mph 8.0 mph 66 % 0.0 in
09:47 14.4 °F 8.3 °F 1023.2 in ESE 4.8 mph 9.7 mph 67 % 0.0 in
09:52 14.5 °F 8.9 °F 1023.2 in SE 3.2 mph 9.7 mph 69 % 0.0 in
09:57 14.6 °F 8.8 °F 1023.2 in ENE 3.2 mph 9.7 mph 68 % 0.0 in
10:02 14.9 °F 9.3 °F 1023.2 in East 3.2 mph 9.7 mph 69 % 0.0 in
10:07 15.1 °F 9.5 °F 1023.2 in East 1.6 mph 8.0 mph 69 % 0.0 in
10:12 15.1 °F 9.5 °F 1023.2 in East 1.6 mph 6.4 mph 69 % 0.0 in
10:17 15.2 °F 9.3 °F 1023.2 in East 3.2 mph 6.4 mph 68 % 0.0 in
10:22 15.1 °F 9.7 °F 1023.2 in Calm   6.4 mph 70 % 0.0 in
10:32 15.2 °F 9.3 °F 1023.2 in Calm   8.0 mph 68 % 0.0 in
10:42 15.4 °F 9.3 °F 1023.2 in SE 4.8 mph 8.0 mph 67 % 0.0 in
10:47 15.5 °F 9.4 °F 1023.2 in SE 4.8 mph 6.4 mph 67 % 0.0 in
10:52 15.7 °F 9.6 °F 1023.2 in SE 4.8 mph 6.4 mph 67 % 0.0 in
10:57 15.7 °F 10.0 °F 1023.2 in SE 3.2 mph 6.4 mph 69 % 0.0 in
11:02 16.1 °F 10.0 °F 1023.2 in Calm   8.0 mph 67 % 0.0 in
11:07 16.3 °F 9.9 °F 1023.2 in SE 1.6 mph 8.0 mph 66 % 0.0 in
11:12 16.7 °F 10.5 °F 1023.6 in Calm   6.4 mph 67 % 0.0 in
11:17 17.2 °F 10.8 °F 1023.2 in SE 1.6 mph 4.8 mph 66 % 0.0 in
11:22 17.1 °F 10.2 °F 1023.2 in Calm   8.0 mph 64 % 0.0 in
11:27 17.3 °F 10.7 °F 1023.6 in SE 4.8 mph 8.0 mph 65 % 0.0 in
11:32 17.3 °F 10.7 °F 1023.2 in SSW 3.2 mph 8.0 mph 65 % 0.0 in
11:37 17.8 °F 10.9 °F 1023.6 in ESE 1.6 mph 6.4 mph 64 % 0.0 in
11:42 18.0 °F 10.6 °F 1023.6 in SE 3.2 mph 6.4 mph 62 % 0.0 in
11:47 18.1 °F 10.9 °F 1023.6 in Calm   9.7 mph 63 % 0.0 in
11:52 18.3 °F 10.9 °F 1023.2 in SSE 1.6 mph 9.7 mph 62 % 0.0 in
11:57 18.6 °F 11.2 °F 1023.6 in East 3.2 mph 9.7 mph 62 % 0.0 in
12:02 18.5 °F 11.1 °F 1023.2 in Calm   6.4 mph 62 % 0.0 in
12:07 18.7 °F 11.8 °F 1023.2 in East 1.6 mph 6.4 mph 64 % 0.0 in
12:12 18.6 °F 11.4 °F 1023.2 in East 4.8 mph 8.0 mph 63 % 0.0 in
12:17 18.8 °F 11.4 °F 1023.2 in ENE 1.6 mph 8.0 mph 62 % 0.0 in
12:22 19.1 °F 11.9 °F 1023.2 in ENE 3.2 mph 8.0 mph 63 % 0.0 in
12:27 19.2 °F 11.2 °F 1023.2 in Calm   6.4 mph 60 % 0.0 in
12:32 19.7 °F 11.7 °F 1023.2 in SSE 1.6 mph 6.4 mph 60 % 0.0 in
12:37 19.9 °F 11.1 °F 1023.2 in Calm   6.4 mph 57 % 0.0 in
12:47 20.1 °F 11.3 °F 1023.2 in ESE 6.4 mph 8.0 mph 57 % 0.0 in
12:52 20.2 °F 11.9 °F 1023.2 in Calm   8.0 mph 59 % 0.0 in
12:57 20.3 °F 11.5 °F 1023.2 in ESE 3.2 mph 8.0 mph 57 % 0.0 in
13:02 20.5 °F 12.0 °F 1023.2 in SSE 3.2 mph 8.0 mph 58 % 0.0 in
13:07 20.6 °F 12.3 °F 1023.2 in ESE 4.8 mph 6.4 mph 59 % 0.0 in
13:12 20.6 °F 11.8 °F 1023.2 in ESE 4.8 mph 9.7 mph 57 % 0.0 in
13:17 20.8 °F 12.0 °F 1023.2 in East 4.8 mph 9.7 mph 57 % 0.0 in
13:22 21.0 °F 12.4 °F 1023.2 in SE 1.6 mph 9.7 mph 58 % 0.0 in
13:27 21.3 °F 12.2 °F 1022.9 in SSW 4.8 mph 11.3 mph 56 % 0.0 in
13:32 21.5 °F 11.5 °F 1022.9 in ESE 9.7 mph 11.3 mph 53 % 0.0 in
13:37 21.6 °F 12.7 °F 1022.9 in East 1.6 mph 11.3 mph 57 % 0.0 in
13:42 21.7 °F 12.0 °F 1022.9 in SE 4.8 mph 11.3 mph 54 % 0.0 in
13:47 21.4 °F 11.7 °F 1022.9 in Calm   11.3 mph 54 % 0.0 in
13:52 21.8 °F 11.8 °F 1022.9 in Calm   11.3 mph 53 % 0.0 in
13:57 21.7 °F 11.4 °F 1022.9 in East 3.2 mph 11.3 mph 52 % 0.0 in
14:02 21.6 °F 11.3 °F 1022.9 in Calm   8.0 mph 52 % 0.0 in
14:07 22.1 °F 12.1 °F 1022.9 in Calm   8.0 mph 53 % 0.0 in
14:12 22.2 °F 11.3 °F 1022.9 in East 3.2 mph 8.0 mph 50 % 0.0 in
14:17 22.2 °F 11.3 °F 1022.9 in SE 1.6 mph 8.0 mph 50 % 0.0 in
14:22 22.2 °F 11.3 °F 1022.9 in ENE 4.8 mph 8.0 mph 50 % 0.0 in
14:27 22.4 °F 12.3 °F 1022.9 in Calm   6.4 mph 53 % 0.0 in
14:32 22.9 °F 11.3 °F 1022.9 in WSW 6.4 mph 6.4 mph 48 % 0.0 in
14:37 22.9 °F 12.2 °F 1022.9 in ESE 3.2 mph 9.7 mph 51 % 0.0 in
14:42 22.8 °F 10.6 °F 1022.9 in ENE 3.2 mph 9.7 mph 46 % 0.0 in
14:47 23.1 °F 10.8 °F 1022.9 in WSW 6.4 mph 9.7 mph 46 % 0.0 in
14:52 22.9 °F 10.3 °F 1022.9 in SSW 3.2 mph 11.3 mph 45 % 0.0 in
14:57 22.7 °F 10.2 °F 1022.9 in SSW 1.6 mph 12.9 mph 45 % 0.0 in
15:02 22.9 °F 10.3 °F 1022.9 in SW 9.7 mph 12.9 mph 45 % 0.0 in
15:07 23.1 °F 10.2 °F 1022.9 in SSW 9.7 mph 12.9 mph 44 % 0.0 in
15:12 23.0 °F 9.7 °F 1022.9 in SE 4.8 mph 12.9 mph 43 % 0.0 in
15:17 23.1 °F 10.5 °F 1022.6 in Calm   12.9 mph 45 % 0.0 in
15:22 23.1 °F 10.5 °F 1022.6 in ESE 4.8 mph 12.9 mph 45 % 0.0 in
15:27 23.2 °F 11.3 °F 1022.6 in ESE 1.6 mph 8.0 mph 47 % 0.0 in
15:32 23.3 °F 11.0 °F 1022.6 in SSW 3.2 mph 9.7 mph 46 % 0.0 in
15:37 23.6 °F 11.0 °F 1022.6 in ESE 4.8 mph 11.3 mph 45 % 0.0 in
15:42 23.3 °F 10.4 °F 1022.6 in ESE 6.4 mph 11.3 mph 44 % 0.0 in
15:47 23.3 °F 9.7 °F 1022.6 in South 9.7 mph 9.7 mph 42 % 0.0 in
15:52 23.3 °F 9.3 °F 1022.2 in East 3.2 mph 11.3 mph 41 % 0.0 in
15:57 23.5 °F 9.8 °F 1022.6 in SSW 3.2 mph 11.3 mph 42 % 0.0 in
16:02 23.9 °F 8.7 °F 1022.2 in SW 12.9 mph 12.9 mph 38 % 0.0 in
16:07 23.7 °F 8.9 °F 1022.2 in SSW 1.6 mph 12.9 mph 39 % 0.0 in
16:12 24.1 °F 9.7 °F 1022.2 in West 3.2 mph 12.9 mph 40 % 0.0 in
16:17 24.5 °F 9.6 °F 1022.2 in SW 3.2 mph 12.9 mph 39 % 0.0 in
16:22 24.1 °F 8.9 °F 1022.2 in SW 1.6 mph 9.7 mph 38 % 0.0 in
16:27 24.2 °F 7.8 °F 1022.2 in Calm   12.9 mph 35 % 0.0 in
16:32 24.3 °F 8.7 °F 1022.2 in WSW 3.2 mph 12.9 mph 37 % 0.0 in
16:37 24.2 °F 9.0 °F 1022.2 in Calm   8.0 mph 38 % 0.0 in
16:42 24.5 °F 9.2 °F 1022.2 in Calm   8.0 mph 38 % 0.0 in
16:52 24.8 °F 8.7 °F 1021.9 in WSW 4.8 mph 6.4 mph 36 % 0.0 in
16:57 24.6 °F 9.7 °F 1021.9 in SSW 4.8 mph 8.0 mph 39 % 0.0 in
17:02 24.7 °F 9.8 °F 1021.9 in SW 6.4 mph 11.3 mph 39 % 0.0 in
17:07 24.4 °F 9.2 °F 1021.9 in SW 4.8 mph 11.3 mph 38 % 0.0 in
17:12 24.3 °F 9.5 °F 1021.9 in SW 4.8 mph 12.9 mph 39 % 0.0 in
17:17 24.3 °F 9.5 °F 1021.9 in SE 3.2 mph 12.9 mph 39 % 0.0 in
17:22 24.5 °F 9.2 °F 1021.9 in SSW 1.6 mph 12.9 mph 38 % 0.0 in
17:27 24.4 °F 8.8 °F 1021.9 in WSW 6.4 mph 12.9 mph 37 % 0.0 in
17:32 24.4 °F 9.2 °F 1021.6 in SSW 8.0 mph 12.9 mph 38 % 0.0 in
17:37 24.4 °F 8.4 °F 1021.9 in SW 4.8 mph 12.9 mph 36 % 0.0 in
17:42 24.4 °F 7.9 °F 1021.9 in South 3.2 mph 11.3 mph 35 % 0.0 in
17:47 24.5 °F 8.4 °F 1021.6 in SW 6.4 mph 12.9 mph 36 % 0.0 in
17:52 24.5 °F 7.2 °F 1021.6 in SSW 9.7 mph 12.9 mph 33 % 0.0 in
17:57 24.5 °F 6.7 °F 1021.6 in SSW 6.4 mph 12.9 mph 32 % 0.0 in
18:02 24.4 °F 7.1 °F 1021.6 in SW 4.8 mph 11.3 mph 33 % 0.0 in
18:07 24.6 °F 7.3 °F 1021.6 in SW 8.0 mph 12.9 mph 33 % 0.0 in
18:12 24.4 °F 7.5 °F 1021.6 in South 3.2 mph 12.9 mph 34 % 0.0 in
18:17 24.7 °F 7.3 °F 1021.6 in South 8.0 mph 11.3 mph 33 % 0.0 in
18:22 24.6 °F 6.8 °F 1021.6 in SW 8.0 mph 11.3 mph 32 % 0.0 in
18:27 24.4 °F 5.7 °F 1021.6 in SSW 6.4 mph 12.9 mph 30 % 0.0 in
18:32 24.4 °F 7.1 °F 1021.6 in SSW 8.0 mph 12.9 mph 33 % 0.0 in
18:37 24.3 °F 6.5 °F 1021.6 in SW 8.0 mph 11.3 mph 32 % 0.0 in
18:47 24.4 °F 7.5 °F 1021.6 in South 8.0 mph 11.3 mph 34 % 0.0 in
18:52 24.3 °F 6.5 °F 1021.6 in SSW 4.8 mph 11.3 mph 32 % 0.0 in
18:57 24.3 °F 7.0 °F 1021.6 in SSW 6.4 mph 11.3 mph 33 % 0.0 in
19:02 24.2 °F 6.5 °F 1021.6 in SW 8.0 mph 11.3 mph 32 % 0.0 in
19:07 24.2 °F 6.5 °F 1021.6 in SSW 6.4 mph 11.3 mph 32 % 0.0 in
19:12 24.2 °F 6.0 °F 1021.6 in SSW 4.8 mph 11.3 mph 31 % 0.0 in
19:17 24.2 °F 6.9 °F 1021.6 in SW 6.4 mph 11.3 mph 33 % 0.0 in
19:22 24.0 °F 7.2 °F 1021.6 in SSE 3.2 mph 11.3 mph 34 % 0.0 in
19:27 24.1 °F 7.3 °F 1021.6 in SSW 4.8 mph 9.7 mph 34 % 0.0 in
19:32 24.0 °F 7.6 °F 1021.6 in SW 8.0 mph 9.7 mph 35 % 0.0 in
19:37 23.8 °F 7.8 °F 1021.6 in SSW 1.6 mph 8.0 mph 36 % 0.0 in
19:47 23.5 °F 7.2 °F 1021.6 in SW 3.2 mph 8.0 mph 35 % 0.0 in
19:52 23.2 °F 6.9 °F 1021.6 in SW 3.2 mph 6.4 mph 35 % 0.0 in
19:57 23.1 °F 7.6 °F 1021.6 in SW 3.2 mph 6.4 mph 37 % 0.0 in
20:02 22.9 °F 7.8 °F 1021.6 in SW 1.6 mph 4.8 mph 38 % 0.0 in
20:07 22.7 °F 8.0 °F 1021.6 in Calm   4.8 mph 39 % 0.0 in
20:12 22.4 °F 7.8 °F 1021.6 in Calm   3.2 mph 39 % 0.0 in
20:17 22.2 °F 7.6 °F 1021.6 in Calm   3.2 mph 39 % 0.0 in
20:22 21.9 °F 8.1 °F 1021.6 in Calm     41 % 0.0 in
20:27 21.4 °F 8.0 °F 1021.6 in Calm     42 % 0.0 in
20:32 21.1 °F 7.7 °F 1021.6 in Calm     42 % 0.0 in
20:37 20.6 °F 7.2 °F 1021.6 in Calm     42 % 0.0 in
20:42 20.3 °F 7.0 °F 1021.6 in Calm     42 % 0.0 in
20:47 20.0 °F 7.0 °F 1021.6 in Calm     43 % 0.0 in
20:52 19.8 °F 7.2 °F 1021.9 in Calm     44 % 0.0 in
20:57 19.6 °F 7.3 °F 1021.9 in Calm     45 % 0.0 in
21:02 19.3 °F 7.1 °F 1021.9 in Calm     45 % 0.0 in
21:12 18.6 °F 8.0 °F 1021.9 in Calm     50 % 0.0 in
21:17 18.1 °F 7.2 °F 1021.9 in Calm     49 % 0.0 in
21:22 18.4 °F 7.2 °F 1021.9 in Calm     48 % 0.0 in
21:32 17.6 °F 7.6 °F 1022.2 in Calm     52 % 0.0 in
21:37 17.5 °F 7.2 °F 1022.2 in Calm     51 % 0.0 in
21:42 17.5 °F 7.8 °F 1022.2 in Calm     53 % 0.0 in
21:47 17.8 °F 7.5 °F 1022.2 in Calm     51 % 0.0 in
21:57 17.1 °F 6.9 °F 1022.2 in Calm     51 % 0.0 in
22:02 16.6 °F 7.3 °F 1022.2 in Calm     54 % 0.0 in
22:07 16.2 °F 7.7 °F 1022.2 in Calm     57 % 0.0 in
22:12 15.9 °F 8.1 °F 1022.2 in Calm     60 % 0.0 in
22:17 15.9 °F 8.1 °F 1022.2 in Calm     60 % 0.0 in
22:22 15.8 °F 8.3 °F 1022.2 in Calm     61 % 0.0 in
22:27 16.1 °F 8.3 °F 1022.2 in Calm     60 % 0.0 in
22:32 15.9 °F 8.4 °F 1022.6 in Calm     61 % 0.0 in
22:42 15.9 °F 8.6 °F 1022.6 in Calm     62 % 0.0 in
22:52 16.0 °F 8.5 °F 1022.6 in Calm     61 % 0.0 in
22:57 15.8 °F 8.5 °F 1022.6 in Calm     62 % 0.0 in
23:02 15.4 °F 8.4 °F 1022.6 in Calm     63 % 0.0 in
23:07 15.2 °F 8.7 °F 1022.6 in Calm     65 % 0.0 in
23:12 15.4 °F 8.6 °F 1022.6 in Calm     64 % 0.0 in
23:17 15.2 °F 8.2 °F 1022.9 in Calm     63 % 0.0 in
23:22 15.1 °F 8.6 °F 1022.9 in Calm     65 % 0.0 in
23:27 15.6 °F 8.6 °F 1022.9 in Calm     63 % 0.0 in
23:32 15.6 °F 8.6 °F 1022.9 in Calm     63 % 0.0 in
23:37 15.4 °F 8.4 °F 1022.9 in Calm     63 % 0.0 in
23:42 15.1 °F 8.3 °F 1022.9 in Calm     64 % 0.0 in
23:47 14.7 °F 8.2 °F 1022.9 in Calm     65 % 0.0 in
23:52 14.4 °F 8.1 °F 1022.9 in Calm     66 % 0.0 in
23:57 14.2 °F 8.2 °F 1022.6 in Calm     67 % 0.0 in
Meteo18
Compliments of Weather Underground - 4 mb

Script developed by  Jim McMurry - jmcmurry@mwt.net Adapted for the template by  Wim van der Kuil - Leuven-Template.eu

You find our weather info also at:

European Weather Network

Weather Underground

Equipment we use:

Weather-station
Davis Vue

Weather-program
Meteobridge

Weather-server
Raspberry PI 2 B+

Provider
1 and 1

Davis Vue

Meteobridge

Raspberry PI 2 B+

1 and 1